DYCHA VAN BERDE
Love’Las JESIENIĄ
Organizator : Stowarzyszenie Zabiegani Mielec, Pakatok Sp. z o.o.
Data : 2021-11-20
Miejsce : Nadleśnictwo Mielec
Dystans : 10 km
Zgłoszonych : 99
Wystartowało : 83
Nie ukończyło : 0
Ukończyło : 83
Na trasie : 0
Pełne wyniki :
Uproszczone :
Klasyfikacje w punktach pomiarowych: Start | Meta
Klasyfikacje wg kategorii: Wszyscy | OPEN Kobiety | OPEN Mężczyźni
Klasyfikacja wg czasu brutto. Wyniki nieoficjalne !!!
MscZawodnikNumerKlubMiejscowośćKrajKategoriaMkatK/MCzas startuCzas
netto
10km
Czas
brutto
10km
Różn.Tempo
min/km
Tempo
km/h
       
1KIEŁBOŃ Michał 510Przeworska Grupa BiegowaPRZEWORSKOPEN Mężczyźni1M 100:00:0000:43:24.0000:43:24.00 4:2013,8
2BOTKIEWICZ Jarosław 554Stokowczyki TeamKIELCEOPEN Mężczyźni2M 200:00:0000:45:56.0000:45:56.00+00:02:324:3513,1
3DURTKA Mateusz 509CHMIELÓWOPEN Mężczyźni3M 300:00:0000:46:25.0000:46:25.00+00:03:014:3812,9
4GUT Jacek 599HUCISKOOPEN Mężczyźni4M 400:00:0000:46:32.0000:46:32.00+00:03:084:3912,9
5KMUK Tomasz 587LUKS GrunwaldPADEW NARODOWA OPEN Mężczyźni5M 500:00:0000:46:59.0000:46:59.00+00:03:354:4112,8
6CETNARSKI Jacek 598TARNOBRZEGOPEN Mężczyźni6M 600:00:0000:51:36.0000:51:36.00+00:08:125:0911,6
7SOBIŁO Ewa 582ButyjanaRZESZÓWOPEN Kobiety1K 100:00:0000:51:44.0000:51:44.00+00:08:205:1011,6
8GAWLE Wojciech 555MIELECOPEN Mężczyźni7M 700:00:0000:52:38.0000:52:38.00+00:09:145:1511,4
9PEŁDIAK Mateusz 539KB Athletic Zręcin/Pawko Runner TeamKROSNO OPEN Mężczyźni8M 800:00:0000:53:00.0000:53:00.00+00:09:365:1811,3
10SZEWC Kamil 562Dzik Team ŻupawaŻUPAWAOPEN Mężczyźni9M 900:00:0000:54:00.0000:54:00.00+00:10:365:2411,1
11SANOCKA Małgorzata 557PRZEMYŚLOPEN Kobiety2K 200:00:0000:55:33.0000:55:33.00+00:12:095:3310,8
12STACHOWICZ Adam 563STASZÓW OPEN Mężczyźni10M 1000:00:0000:56:01.0000:56:01.00+00:12:375:3610,7
13DUSZKIEWICZ Łukasz 586Dom Dziecka w Skopaniu SKOPANIEOPEN Mężczyźni11M 1100:00:0000:56:20.0000:56:20.00+00:12:565:3810,7
14WTORKIEWICZ Damian 579OSTROWIEC ŚWIĘTOKRZYSKIOPEN Mężczyźni12M 1200:00:0000:58:00.0000:58:00.00+00:14:365:4810,3
15BARAN Jacek 525STARA JASTRZĄBKAOPEN Mężczyźni13M 1300:00:0000:58:43.0000:58:43.00+00:15:195:5210,2
16POLEK Ewa 524BW Biegacze WymiataczeKRAKÓWOPEN Kobiety3K 300:00:0000:58:52.0000:58:52.00+00:15:285:5310,2
17PRZYBYLSKI Damian 526GŁOGÓW MAŁOPOLSKIOPEN Mężczyźni14M 1400:00:0000:59:48.0000:59:48.00+00:16:245:5810,0
18DYMEK Patryk 559KSIĄŻNICEOPEN Mężczyźni15M 1500:00:0001:00:05.0001:00:05.00+00:16:416:0010,0
19ZUBIEL Jarosław 523Van BerdeMIELECOPEN Mężczyźni16M 1600:00:0001:00:09.0001:00:09.00+00:16:456:0010,0
20SMAGACZ Malgorzata 547RADOMYSL WIELKIOPEN Kobiety4K 400:00:0001:00:20.0001:00:20.00+00:16:566:029,9
21KUSEK Łukasz 565MIELECOPEN Mężczyźni17M 1700:00:0001:00:29.0001:00:29.00+00:17:056:029,9
22SULIK Anna 594MIELEC OPEN Kobiety5K 500:00:0001:00:39.0001:00:39.00+00:17:156:039,9
23ŚWIĘCH Ania 536STRZYŻÓWOPEN Kobiety6K 600:00:0001:01:04.0001:01:04.00+00:17:406:069,8
23SAJ Paweł 571Dzikie MustangiSĘDZISZÓW MAŁOPOLSKIOPEN Mężczyźni18M 1800:00:0001:01:04.0001:01:04.00+00:17:406:069,8
25SZCZEKALA Łukasz 567Pro-Mile teamRZESZOWOPEN Mężczyźni19M 1900:00:0001:01:18.0001:01:18.00+00:17:546:079,8
26PAŁYS Tomasz 560PDXSTALOWA WOLAOPEN Mężczyźni20M 2000:00:0001:01:21.0001:01:21.00+00:17:576:089,8
27FELINIAK Elżbieta 511Zawadzka Team GŁOGÓW MAŁOPOLSKI OPEN Kobiety7K 700:00:0001:01:25.0001:01:25.00+00:18:016:089,8
28BARTKIEWICZ Barbara 517Zawadzka TeamRZESZÓWOPEN Kobiety8K 800:00:0001:01:33.0001:01:33.00+00:18:096:099,7
29KUŚNIERZ Ewa 503MIELECOPEN Kobiety9K 900:00:0001:01:48.0001:01:48.00+00:18:246:109,7
30PAJĄK Maciej 558Pro-mile TeamRZESZÓW OPEN Mężczyźni21M 2100:00:0001:01:51.0001:01:51.00+00:18:276:119,7
31SZWAGIERCZAK Damian 585Dom Dziecka w Skopaniu SKOPANIEOPEN Mężczyźni22M 2200:00:0001:02:44.0001:02:44.00+00:19:206:169,6
32LACHCIK Iwona 597TOMASZÓW MAZOPEN Kobiety10K 1000:00:0001:02:52.0001:02:52.00+00:19:286:179,5
33GOS Hubert 575OSTROWIEC ŚWIĘTOKRZYSKIOPEN Mężczyźni23M 2300:00:0001:03:12.0001:03:12.00+00:19:486:199,5
34GÓRECKA Monika 522TARNOBRZEGOPEN Kobiety11K 1100:00:0001:03:29.0001:03:29.00+00:20:056:209,5
35NAMIOTA Urszula 595DĘBICA OPEN Kobiety12K 1200:00:0001:03:33.0001:03:33.00+00:20:096:219,4
36DZIMIRA Sławomir 551Browar PogórzaRZESZÓWOPEN Mężczyźni24M 2400:00:0001:04:50.0001:04:50.00+00:21:266:299,3
37BAZAN Krystyna 553ŁANCUT OPEN Kobiety13K 1300:00:0001:04:53.0001:04:53.00+00:21:296:299,2
38KOŁEK-ZAJĄC Ewa 512RZESZÓWOPEN Kobiety14K 1400:00:0001:05:42.0001:05:42.00+00:22:186:349,1
39JEZIERSKA Magdalena 528STASZÓW OPEN Kobiety15K 1500:00:0001:05:54.0001:05:54.00+00:22:306:359,1
40SIKORA Gosia 541Drużyna SzwagrówKIELCEOPEN Kobiety16K 1600:00:0001:06:12.0001:06:12.00+00:22:486:379,1
41BALON Adam 570NORDTREATKROSNOOPEN Mężczyźni25M 2500:00:0001:06:20.0001:06:20.00+00:22:566:389,0
42BRACICHOWICZ Bogumiła 527Mondi BagsŚWIECIEOPEN Kobiety17K 1700:00:0001:06:21.0001:06:21.00+00:22:576:389,0
43CHABROS Teresa 540Mondi BagsŚWIECIEOPEN Kobiety18K 1800:00:0001:06:23.0001:06:23.00+00:22:596:389,0
44MARSZAŁEK Mariola 548MCP TeamRZEZAWAOPEN Kobiety19K 1900:00:0001:07:15.0001:07:15.00+00:23:516:438,9
45OLEŚ Tomasz 596SĘDZISZÓW OPEN Mężczyźni26M 2600:00:0001:07:17.0001:07:17.00+00:23:536:438,9
46PIWOŃSKA Sylwia 561PODIUMGŁOGÓW MAŁOPOLSKIOPEN Kobiety20K 2000:00:0001:08:26.0001:08:26.00+00:25:026:508,8
47PALUCH Marzena 581Van BerdeMIELECOPEN Kobiety21K 2100:00:0001:08:41.0001:08:41.00+00:25:176:528,7
48ŚLASKI Paweł 592STRZYŻÓWOPEN Mężczyźni27M 2700:00:0001:08:51.0001:08:51.00+00:25:276:538,7
49BRATEK Anna 583Miody i Ogrody / Van BerdeTUSZYMA OPEN Kobiety22K 2200:00:0001:08:53.0001:08:53.00+00:25:296:538,7
50WĄSIK Marcin 584Miody i Ogrody TUSZYMA OPEN Mężczyźni28M 2800:00:0001:08:54.0001:08:54.00+00:25:306:538,7
51ŁANNIK-STAWARZ Magdalena 542PODIUMRZESZÓWOPEN Kobiety23K 2300:00:0001:09:08.0001:09:08.00+00:25:446:548,7
51BAŁUT Katarzyna 590RZESZÓW OPEN Kobiety23K 2300:00:0001:09:08.0001:09:08.00+00:25:446:548,7
53CIELAK Jerzy 589PASZCZYNA OPEN Mężczyźni29M 2900:00:0001:09:24.0001:09:24.00+00:26:006:568,6
54JASEWICZ Wojciech 549TOMASZÓW MAZOPEN Mężczyźni30M 3000:00:0001:09:30.0001:09:30.00+00:26:066:578,6
55DZIADOSZ Katarzyna 550PODIUMBRZOZÓWOPEN Kobiety25K 2500:00:0001:10:02.0001:10:02.00+00:26:387:008,6
56URBANIK Anna 504Pędzące ŚlimakiDĘBICAOPEN Kobiety26K 2600:00:0001:10:39.0001:10:39.00+00:27:157:038,5
57GADZIOŁA Sylwester 593MIELECOPEN Mężczyźni31M 3100:00:0001:10:42.0001:10:42.00+00:27:187:048,5
58SZMYD Elżbieta 568PodiumGÓRNOOPEN Kobiety27K 2700:00:0001:11:04.0001:11:04.00+00:27:407:068,4
59KRUKAR Monika 506Finisz RymanówIWONICZ ZDRÓJOPEN Kobiety28K 2800:00:0001:11:23.0001:11:23.00+00:27:597:088,4
60PRONOBIS Magda 518Kosek Training SystemOSTROWIEC ŚWIĘTOKRZYSKI OPEN Kobiety29K 2900:00:0001:11:32.0001:11:32.00+00:28:087:098,4
61LEWANDOWSKI Grzegorz 513Kosek Training SystemOSTROWIEC ŚWIĘTOKRZYSKIOPEN Mężczyźni32M 3200:00:0001:11:34.0001:11:34.00+00:28:107:098,4
62KAMUDA Łukasz 531MIELECOPEN Mężczyźni33M 3300:00:0001:11:35.0001:11:35.00+00:28:117:098,4
63SKOP Paweł 502Wkurw_TeamPRZECŁAWOPEN Mężczyźni34M 3400:00:0001:11:40.0001:11:40.00+00:28:167:108,4
64CYRAN Andrzej 544Nowy Żmigród BiegaNOWY ŻMIGRÓDOPEN Mężczyźni35M 3500:00:0001:11:43.0001:11:43.00+00:28:197:108,4
65STACHURA Karol 576BRODYOPEN Mężczyźni36M 3600:00:0001:11:47.0001:11:47.00+00:28:237:108,4
66LEŚNIAK Magdalena 556Mondi BagsMIELECOPEN Kobiety30K 3000:00:0001:12:00.0001:12:00.00+00:28:367:128,3
67WÓJCICKI Paweł 566Biegacz ŚwiętokrzyskiKIELCEOPEN Mężczyźni37M 3700:00:0001:12:41.0001:12:41.00+00:29:177:168,3
68CZERWIŃSKA Małgorzata 538Podium / Jumping Stars Team PrzemyślPRZEMYŚLOPEN Kobiety31K 3100:00:0001:12:58.0001:12:58.00+00:29:347:178,2
69RYBCZAK Ryszard 521DecaRun Rzeszów RZESZÓW OPEN Mężczyźni38M 3800:00:0001:13:11.0001:13:11.00+00:29:477:198,2
70TYMBOROWSKA-WIEDRO Małgorzata 535Wkurw_TeamZAGNAŃSKOPEN Kobiety32K 3200:00:0001:16:18.0001:16:18.00+00:32:547:377,9
71PIEJKO Paulina 543PODIUMRZESZÓWOPEN Kobiety33K 3300:00:0001:16:19.0001:16:19.00+00:32:557:377,9
72ŚLIWA Justyna 533PRZEMYŚLOPEN Kobiety34K 3400:00:0001:17:58.0001:17:58.00+00:34:347:477,7
73KIEŁTYKA Aneta 532PRZEMYŚLOPEN Kobiety35K 3500:00:0001:17:59.0001:17:59.00+00:34:357:477,7
74PARA Aleksandra 519PODIUMRZESZÓWOPEN Kobiety36K 3600:00:0001:19:06.0001:19:06.00+00:35:427:547,6
75TOMAKA Jadwiga 507Szkółka Rolkowa Wodzu RZESZÓWOPEN Kobiety37K 3700:00:0001:20:35.0001:20:35.00+00:37:118:037,4
75TOMAKA Anna 545Szkółka Rolkowa WodzuRZESZÓWOPEN Kobiety37K 3700:00:0001:20:35.0001:20:35.00+00:37:118:037,4
77SIERECKA Dorota 588ŻELCHÓW OPEN Kobiety39K 3900:00:0001:24:23.0001:24:23.00+00:40:598:267,1
78SIEREKI Zbigniew 520Wkurw_TeamŻELECHÓWOPEN Mężczyźni39M 3900:00:0001:30:41.0001:30:41.00+00:47:179:046,6
79KRZYŻANOWSKI Tomasz 580DĘBICAOPEN Mężczyźni40M 4000:00:0001:33:18.0001:33:18.00+00:49:549:196,4
80KAPINOS Łukasz 578MIELECOPEN Mężczyźni41M 4100:00:0001:36:04.0001:36:04.00+00:52:409:366,2
81PABIAN Stanisław 591MIELEC OPEN Mężczyźni42M 4200:00:0001:45:35.0001:45:35.00+01:02:1110:335,7
82DOPART Michał 514MIELECOPEN Mężczyźni43M 4300:00:0001:49:38.0001:49:38.00+01:06:1410:575,5
82MAZUR Marcin 572KIEŁKÓWOPEN Mężczyźni43M 4300:00:0001:49:38.0001:49:38.00+01:06:1410:575,5
Znaleziono 83 wynik(ów)